Time;durP1;ratioP1;P1;durP2;ratioP2;P2;SDS_P1;SDS_P2;PMS_P1;PMS_P2;Temp;Humidity;BMP_temperature;BMP_pressure;BME280_temperature;BME280_humidity;BME280_pressure;Samples;Min_cycle;Max_cycle;Signal;HPM_P1;HPM_P2
2022/06/21 00:02:12;;;;;;;12.98;4.03;;;21.10;62.80;;;;;;5013425;28;20063;-76
2022/06/21 00:04:38;;;;;;;10.50;3.72;;;21.10;62.60;;;;;;4996480;28;20049;-76
2022/06/21 00:07:05;;;;;;;9.88;3.42;;;21.20;62.50;;;;;;4997947;28;20762;-76
2022/06/21 00:09:31;;;;;;;8.77;3.47;;;21.10;62.50;;;;;;4997864;28;20018;-76
2022/06/21 00:11:56;;;;;;;15.68;3.70;;;21.20;62.50;;;;;;4997584;28;20504;-76
2022/06/21 00:14:22;;;;;;;8.32;3.60;;;21.20;62.40;;;;;;4982560;28;20105;-76
2022/06/21 00:16:48;;;;;;;7.88;3.20;;;21.20;62.30;;;;;;4982356;28;20484;-76
2022/06/21 00:19:21;;;;;;;6.75;2.88;;;21.10;62.40;;;;;;4997071;28;20112;-76
2022/06/21 00:21:47;;;;;;;10.85;3.92;;;21.00;62.40;;;;;;4997583;28;20486;-76
2022/06/21 00:24:16;;;;;;;9.30;3.22;;;20.90;62.80;;;;;;4997674;28;20105;-76
2022/06/21 00:26:44;;;;;;;10.75;3.95;;;20.90;63.00;;;;;;4981136;28;20033;-76
2022/06/21 00:29:11;;;;;;;5.97;3.35;;;20.90;62.90;;;;;;4977935;28;20027;-76
2022/06/21 00:31:41;;;;;;;13.38;3.55;;;20.80;63.30;;;;;;4977933;28;20038;-76
2022/06/21 00:34:14;;;;;;;7.47;3.35;;;20.80;63.50;;;;;;4989598;28;20527;-76
2022/06/21 00:36:40;;;;;;;9.75;3.72;;;20.80;63.40;;;;;;4997121;28;20089;-76
2022/06/21 00:39:07;;;;;;;10.38;3.30;;;20.80;63.30;;;;;;4995472;28;20493;-76
2022/06/21 00:41:55;;;;;;;8.63;3.25;;;20.80;63.30;;;;;;4997027;28;20600;-76
2022/06/21 00:44:59;;;;;;;8.15;3.35;;;20.80;63.10;;;;;;4997156;28;20026;-76
2022/06/21 00:47:35;;;;;;;11.05;4.00;;;20.80;63.40;;;;;;4997086;28;20847;-76
2022/06/21 00:50:11;;;;;;;7.43;3.88;;;20.60;63.80;;;;;;4977681;28;20691;-76
2022/06/21 00:52:46;;;;;;;9.80;3.53;;;20.60;64.00;;;;;;4977772;28;20035;-76
2022/06/21 00:55:18;;;;;;;6.20;3.15;;;20.50;64.10;;;;;;4976868;28;20027;-76
2022/06/21 00:57:55;;;;;;;6.50;3.90;;;20.60;63.90;;;;;;4977065;28;20049;-76
2022/06/21 01:00:34;;;;;;;9.23;3.72;;;20.50;64.10;;;;;;4977462;28;20054;-76
2022/06/21 01:03:07;;;;;;;7.60;3.38;;;20.50;63.80;;;;;;4977826;28;20106;-76
2022/06/21 01:05:40;;;;;;;10.05;4.00;;;20.60;63.80;;;;;;4977327;28;20023;-76
2022/06/21 01:08:09;;;;;;;12.65;3.50;;;20.60;64.00;;;;;;4977306;28;20031;-76
2022/06/21 01:10:35;;;;;;;8.88;4.03;;;20.60;64.00;;;;;;4977273;28;20046;-76
2022/06/21 01:13:08;;;;;;;7.82;4.03;;;20.60;63.90;;;;;;4976457;28;20030;-76
2022/06/21 01:15:37;;;;;;;7.82;3.70;;;20.60;64.10;;;;;;4986440;28;20034;-76
2022/06/21 01:18:06;;;;;;;6.18;3.28;;;20.50;64.20;;;;;;4996396;28;20026;-76
2022/06/21 01:20:34;;;;;;;9.75;3.80;;;20.40;64.40;;;;;;4996453;28;20118;-76
2022/06/21 01:23:18;;;;;;;14.95;4.45;;;20.40;64.30;;;;;;4996383;28;20080;-76
2022/06/21 01:25:54;;;;;;;8.32;3.65;;;20.40;64.40;;;;;;4995001;28;20030;-76
2022/06/21 01:28:21;;;;;;;8.30;3.42;;;20.30;64.40;;;;;;4995538;28;20022;-76
2022/06/21 01:30:52;;;;;;;11.63;4.07;;;20.40;64.40;;;;;;4994285;28;20042;-76
2022/06/21 01:33:30;;;;;;;7.78;3.20;;;20.40;64.50;;;;;;4994587;28;20037;-77
2022/06/21 01:35:58;;;;;;;9.20;3.67;;;20.30;64.60;;;;;;4990448;28;20420;-76
2022/06/21 01:38:31;;;;;;;12.25;4.13;;;20.30;64.90;;;;;;4976651;28;20030;-76
2022/06/21 01:41:03;;;;;;;10.13;3.53;;;20.20;65.10;;;;;;4990604;28;20457;-76
2022/06/21 01:43:29;;;;;;;8.07;3.08;;;20.00;65.70;;;;;;4995520;28;20033;-76
2022/06/21 01:46:09;;;;;;;10.38;3.60;;;20.00;65.90;;;;;;4994713;28;20217;-76
2022/06/21 01:48:40;;;;;;;10.70;3.85;;;20.00;65.60;;;;;;4994296;28;20034;-76
2022/06/21 01:51:14;;;;;;;15.73;4.03;;;20.00;65.60;;;;;;5011274;28;20035;-76
2022/06/21 01:53:41;;;;;;;8.38;3.15;;;20.00;65.60;;;;;;4996042;28;20033;-76
2022/06/21 01:56:13;;;;;;;9.75;4.07;;;20.00;65.80;;;;;;4983959;28;20059;-76
2022/06/21 01:58:45;;;;;;;7.40;3.28;;;19.90;65.90;;;;;;4990144;28;20105;-76
2022/06/21 02:01:20;;;;;;;7.47;4.05;;;19.90;66.10;;;;;;5015291;28;20029;-76
2022/06/21 02:03:51;;;;;;;7.60;3.55;;;19.90;66.00;;;;;;5013147;28;20069;-76
2022/06/21 02:06:18;;;;;;;7.47;3.53;;;19.90;65.80;;;;;;4993882;28;20092;-76
2022/06/21 02:09:00;;;;;;;8.05;3.85;;;19.90;65.70;;;;;;4994651;28;20026;-76
2022/06/21 02:11:55;;;;;;;14.98;3.75;;;19.90;65.80;;;;;;4995863;28;20030;-77
2022/06/21 02:14:29;;;;;;;5.47;3.75;;;20.00;65.60;;;;;;4986856;28;20047;-76
2022/06/21 02:17:22;;;;;;;12.27;3.75;;;20.00;65.60;;;;;;4981626;28;20027;-76
2022/06/21 02:20:07;;;;;;;7.82;3.97;;;20.00;65.70;;;;;;4995663;28;20019;-76
2022/06/21 02:22:34;;;;;;;11.65;4.07;;;20.00;65.50;;;;;;4985003;28;20066;-76
2022/06/21 02:25:00;;;;;;;6.63;3.50;;;20.00;65.50;;;;;;4975772;28;20458;-76
2022/06/21 02:27:34;;;;;;;9.00;4.10;;;19.90;66.00;;;;;;4976021;28;20027;-76
2022/06/21 02:30:05;;;;;;;8.00;3.80;;;19.80;66.00;;;;;;4976048;28;20022;-76
2022/06/21 02:32:39;;;;;;;8.93;4.00;;;19.90;65.90;;;;;;4976362;28;20397;-76
2022/06/21 02:35:13;;;;;;;7.55;3.92;;;19.90;66.20;;;;;;4976302;28;20037;-76
2022/06/21 02:37:39;;;;;;;6.97;3.88;;;19.90;66.30;;;;;;4974814;28;20038;-76
2022/06/21 02:40:08;;;;;;;7.90;3.95;;;19.80;66.50;;;;;;4986542;28;20031;-76
2022/06/21 02:42:38;;;;;;;10.65;5.05;;;19.80;66.50;;;;;;4993638;28;20018;-76
2022/06/21 02:45:29;;;;;;;7.72;4.05;;;19.80;66.80;;;;;;4978791;28;20034;-76
2022/06/21 02:47:59;;;;;;;5.20;3.50;;;19.80;67.30;;;;;;4966334;28;20046;-76
2022/06/21 02:50:41;;;;;;;8.95;3.58;;;19.80;67.00;;;;;;4976162;28;20532;-76
2022/06/21 02:53:19;;;;;;;10.20;4.38;;;19.80;66.90;;;;;;4975974;28;20062;-76
2022/06/21 02:55:59;;;;;;;7.53;3.55;;;19.80;66.60;;;;;;4993884;28;20505;-76
2022/06/21 02:58:30;;;;;;;6.97;3.50;;;19.80;66.50;;;;;;5001796;28;20037;-76
2022/06/21 03:00:59;;;;;;;13.10;4.90;;;19.90;66.00;;;;;;5018715;28;20022;-76
2022/06/21 03:03:29;;;;;;;11.13;4.15;;;19.90;66.60;;;;;;4990349;28;20114;-77
2022/06/21 03:05:58;;;;;;;9.50;4.13;;;19.90;66.40;;;;;;4978836;28;20406;-76
2022/06/21 03:08:27;;;;;;;6.20;3.30;;;20.00;66.40;;;;;;4978364;28;20039;-76
2022/06/21 03:10:53;;;;;;;10.45;3.53;;;20.00;66.10;;;;;;4979711;28;20039;-76
2022/06/21 03:13:24;;;;;;;8.32;3.45;;;20.00;66.10;;;;;;4979506;28;20039;-76
2022/06/21 03:15:59;;;;;;;10.93;4.05;;;20.00;66.00;;;;;;4979330;28;20118;-76
2022/06/21 03:18:37;;;;;;;10.60;3.72;;;20.00;66.20;;;;;;4993422;28;20030;-76
2022/06/21 03:21:05;;;;;;;7.85;3.15;;;20.00;66.00;;;;;;4979412;28;20520;-76
2022/06/21 03:23:31;;;;;;;6.55;3.95;;;20.00;65.90;;;;;;4979147;28;20030;-77
2022/06/21 03:26:03;;;;;;;7.25;3.92;;;20.00;66.00;;;;;;4978707;28;20022;-76
2022/06/21 03:28:38;;;;;;;7.07;4.32;;;20.00;66.10;;;;;;4978943;28;20504;-76
2022/06/21 03:31:16;;;;;;;8.88;3.83;;;20.00;66.10;;;;;;4977819;28;20059;-76
2022/06/21 03:33:45;;;;;;;6.05;3.22;;;20.00;66.00;;;;;;4979026;28;20035;-76
2022/06/21 03:36:15;;;;;;;9.15;3.90;;;20.00;66.30;;;;;;4978947;28;20061;-76
2022/06/21 03:38:45;;;;;;;7.82;3.15;;;19.90;66.20;;;;;;4979093;28;20041;-76
2022/06/21 03:44:08;;;;;;;6.43;3.00;;;19.80;66.40;;;;;;4978659;28;20037;-76
2022/06/21 03:47:02;;;;;;;8.45;3.38;;;19.80;67.00;;;;;;4978854;28;20027;-76
2022/06/21 03:49:34;;;;;;;7.32;3.78;;;19.80;66.90;;;;;;4977491;28;20108;-76
2022/06/21 03:52:05;;;;;;;7.55;3.88;;;19.80;66.20;;;;;;4978698;28;20070;-76
2022/06/21 03:54:41;;;;;;;8.18;3.95;;;19.80;66.90;;;;;;4978599;28;20026;-76
2022/06/21 03:57:31;;;;;;;12.90;4.35;;;19.80;66.80;;;;;;4977335;28;20533;-76
2022/06/21 04:00:01;;;;;;;7.72;4.40;;;19.80;66.70;;;;;;5012046;28;20030;-76
2022/06/21 04:02:32;;;;;;;10.15;4.15;;;19.80;66.90;;;;;;5027884;28;20106;-76
2022/06/21 04:05:11;;;;;;;8.32;3.92;;;19.80;66.80;;;;;;4997164;28;20023;-76
2022/06/21 04:08:02;;;;;;;10.65;4.55;;;19.80;67.00;;;;;;4995979;28;20495;-76
2022/06/21 04:10:36;;;;;;;8.55;4.55;;;19.80;67.10;;;;;;4988713;28;20042;-76
2022/06/21 04:13:09;;;;;;;6.15;3.72;;;19.80;66.80;;;;;;4997748;28;20027;-76
2022/06/21 04:15:43;;;;;;;8.80;4.03;;;19.80;66.70;;;;;;4998127;28;20080;-77
2022/06/21 04:18:27;;;;;;;11.45;4.38;;;19.80;66.40;;;;;;4997623;28;20027;-77
2022/06/21 04:21:21;;;;;;;10.15;4.75;;;19.80;66.50;;;;;;4977928;28;20131;-76
2022/06/21 04:23:49;;;;;;;7.70;4.50;;;19.80;66.40;;;;;;4977817;28;20023;-76
2022/06/21 04:26:29;;;;;;;11.25;4.00;;;19.80;66.00;;;;;;4977926;28;20114;-76
2022/06/21 04:29:10;;;;;;;7.88;4.22;;;19.80;66.00;;;;;;4978213;28;20065;-77
2022/06/21 04:31:57;;;;;;;11.80;4.22;;;19.70;66.40;;;;;;4976497;28;20055;-78
2022/06/21 04:34:32;;;;;;;9.38;4.28;;;19.80;66.30;;;;;;4977991;28;20035;-78
2022/06/21 04:37:12;;;;;;;7.65;3.80;;;19.80;66.40;;;;;;4978032;28;20117;-79
2022/06/21 04:39:59;;;;;;;10.35;4.97;;;19.80;66.50;;;;;;4977364;28;20038;-78
2022/06/21 04:42:34;;;;;;;7.00;3.85;;;19.80;66.50;;;;;;4976459;28;20117;-79
2022/06/21 04:45:21;;;;;;;7.43;3.75;;;19.80;66.70;;;;;;4976749;28;20078;-78
2022/06/21 04:48:15;;;;;;;7.40;4.45;;;19.70;66.90;;;;;;4977665;28;20074;-79
2022/06/21 04:50:46;;;;;;;7.47;4.07;;;19.60;67.30;;;;;;4976122;28;20142;-79
2022/06/21 04:53:20;;;;;;;8.70;4.10;;;19.60;67.20;;;;;;4976769;28;20061;-79
2022/06/21 04:56:04;;;;;;;9.55;4.10;;;19.60;67.00;;;;;;4975822;28;20121;-81
2022/06/21 04:58:30;;;;;;;11.20;4.05;;;19.70;67.10;;;;;;4994684;28;20056;-77
2022/06/21 05:00:58;;;;;;;7.90;3.65;;;19.70;66.70;;;;;;5015394;28;20026;-77
2022/06/21 05:03:41;;;;;;;5.60;3.63;;;19.70;66.50;;;;;;5011404;28;20018;-81
2022/06/21 05:06:10;;;;;;;7.07;3.63;;;19.80;66.30;;;;;;4982318;28;20039;-76
2022/06/21 05:08:36;;;;;;;8.85;4.03;;;19.80;65.90;;;;;;4994623;28;20018;-77
2022/06/21 05:11:02;;;;;;;8.30;3.58;;;19.80;66.10;;;;;;4986460;28;20043;-77
2022/06/21 05:13:33;;;;;;;7.22;3.85;;;19.80;66.30;;;;;;4980017;28;20033;-78
2022/06/21 05:16:04;;;;;;;8.20;4.13;;;19.80;66.20;;;;;;4984033;28;20111;-82
2022/06/21 05:18:39;;;;;;;8.52;4.22;;;19.80;66.10;;;;;;4992264;28;20026;-80
2022/06/21 05:21:12;;;;;;;9.18;4.35;;;19.90;65.90;;;;;;4994010;28;20773;-80
2022/06/21 05:23:38;;;;;;;9.00;4.55;;;19.80;66.00;;;;;;4994971;28;20027;-81
2022/06/21 05:26:12;;;;;;;13.20;4.60;;;19.90;66.10;;;;;;4996280;28;20169;-82
2022/06/21 05:28:43;;;;;;;8.02;3.90;;;19.90;65.70;;;;;;4990197;28;20023;-83
2022/06/21 05:31:17;;;;;;;9.13;3.85;;;19.90;65.70;;;;;;4987263;28;20405;-86
2022/06/21 05:33:55;;;;;;;6.72;3.80;;;19.90;65.50;;;;;;4974937;28;20030;-82
2022/06/21 05:36:32;;;;;;;5.75;3.75;;;19.90;65.70;;;;;;4973746;28;20053;-83
2022/06/21 05:39:23;;;;;;;12.45;4.32;;;20.00;65.70;;;;;;4975334;28;20023;-83
2022/06/21 05:41:52;;;;;;;8.68;3.67;;;20.00;65.60;;;;;;4986703;28;20149;-83
2022/06/21 05:44:53;;;;;;;8.80;3.97;;;20.00;65.40;;;;;;4995042;28;20018;-83
2022/06/21 05:47:30;;;;;;;4.95;3.55;;;19.90;65.50;;;;;;4986179;28;20034;-83
2022/06/21 05:49:57;;;;;;;11.02;4.25;;;19.90;65.40;;;;;;4974879;28;20018;-83
2022/06/21 05:52:33;;;;;;;5.43;3.33;;;20.00;65.40;;;;;;4975002;28;20023;-83
2022/06/21 05:55:02;;;;;;;9.70;3.88;;;20.00;65.70;;;;;;4983527;28;20587;-83
2022/06/21 05:57:42;;;;;;;9.18;3.30;;;20.00;65.50;;;;;;4994989;28;20515;-82
2022/06/21 06:00:18;;;;;;;4.88;3.63;;;20.00;65.60;;;;;;4994244;28;20037;-81
2022/06/21 06:02:48;;;;;;;8.65;3.83;;;20.10;65.10;;;;;;4995787;28;20030;-82
2022/06/21 06:05:20;;;;;;;7.20;3.58;;;20.30;65.00;;;;;;4994870;28;20037;-82
2022/06/21 06:07:51;;;;;;;10.48;4.32;;;20.30;64.70;;;;;;4991404;28;20035;-81
2022/06/21 06:10:20;;;;;;;10.55;4.50;;;20.40;64.70;;;;;;4976198;28;20027;-81
2022/06/21 06:12:51;;;;;;;7.30;3.92;;;20.50;64.60;;;;;;4975126;28;20043;-82
2022/06/21 06:15:34;;;;;;;7.18;3.88;;;20.60;64.20;;;;;;4991338;28;20035;-81
2022/06/21 06:18:30;;;;;;;12.65;3.80;;;20.70;63.80;;;;;;4990137;28;20049;-82
2022/06/21 06:21:24;;;;;;;8.18;4.75;;;20.80;63.70;;;;;;4994554;28;20034;-82
2022/06/21 06:24:12;;;;;;;9.95;4.38;;;20.80;63.50;;;;;;4980446;28;20565;-81
2022/06/21 06:26:41;;;;;;;5.80;3.90;;;20.90;63.40;;;;;;4975979;28;20026;-79
2022/06/21 06:29:25;;;;;;;7.68;3.67;;;21.00;63.30;;;;;;4975241;28;20061;-82
2022/06/21 06:32:20;;;;;;;6.65;3.75;;;21.20;62.90;;;;;;4980159;28;20038;-79
2022/06/21 06:34:50;;;;;;;7.70;3.95;;;21.20;62.50;;;;;;4975835;28;20085;-82
2022/06/21 06:37:36;;;;;;;;;;;21.30;62.20;;;;;;4980500;28;20118;-81
2022/06/21 06:40:05;;;;;;;9.75;3.85;;;21.40;61.90;;;;;;4979960;28;19987;-79
2022/06/21 06:42:36;;;;;;;7.78;3.28;;;21.60;61.50;;;;;;4981037;28;20027;-79
2022/06/21 06:45:24;;;;;;;8.30;4.15;;;21.70;61.20;;;;;;4998973;28;20026;-79
2022/06/21 06:47:56;;;;;;;9.07;4.28;;;21.80;60.70;;;;;;4999220;28;20084;-81
2022/06/21 06:50:46;;;;;;;5.78;4.03;;;21.90;60.40;;;;;;4994541;28;20034;-79
2022/06/21 06:53:35;;;;;;;117.72;17.70;;;22.00;60.20;;;;;;4977832;28;20039;-81
2022/06/21 06:56:11;;;;;;;21.17;6.13;;;22.00;60.00;;;;;;4978192;28;20043;-81
2022/06/21 06:58:46;;;;;;;12.00;4.40;;;22.00;59.90;;;;;;4986180;28;20574;-79
2022/06/21 07:01:17;;;;;;;9.52;4.00;;;21.90;60.20;;;;;;4983493;28;20053;-78
2022/06/21 07:03:55;;;;;;;8.48;3.90;;;21.90;60.30;;;;;;4981830;28;20018;-85
2022/06/21 07:06:41;;;;;;;7.50;3.58;;;22.00;60.10;;;;;;4981486;28;20102;-80
2022/06/21 07:09:29;;;;;;;7.85;3.80;;;22.10;60.00;;;;;;4988877;28;20041;-83
2022/06/21 07:12:18;;;;;;;7.88;3.83;;;22.10;59.90;;;;;;4987919;28;20086;-85
2022/06/21 07:14:46;;;;;;;11.43;4.30;;;22.00;59.30;;;;;;5000933;28;20031;-82
2022/06/21 07:17:36;;;;;;;7.32;3.85;;;22.00;59.30;;;;;;5003967;28;20108;-81
2022/06/21 07:20:02;;;;;;;8.10;3.60;;;21.90;59.00;;;;;;5004265;28;20035;-82
2022/06/21 07:22:33;;;;;;;9.90;4.82;;;21.90;59.10;;;;;;4986530;28;20042;-84
2022/06/21 07:25:12;;;;;;;7.22;4.00;;;22.00;59.00;;;;;;4985321;28;20378;-86
2022/06/21 07:27:43;;;;;;;6.50;3.53;;;22.00;59.10;;;;;;4988534;28;20145;-86
2022/06/21 07:30:11;;;;;;;8.40;3.63;;;22.10;58.80;;;;;;4985731;28;20067;-83
2022/06/21 07:32:48;;;;;;;5.70;3.55;;;22.30;58.50;;;;;;4989783;28;20022;-86
2022/06/21 07:35:32;;;;;;;7.63;3.30;;;22.70;58.60;;;;;;4988253;28;20124;-85
2022/06/21 07:38:30;;;;;;;9.07;3.28;;;23.50;55.50;;;;;;4988729;28;20037;-88
2022/06/21 07:41:02;;;;;;;3.88;2.72;;;25.20;52.10;;;;;;4980394;28;20038;-87
2022/06/21 07:43:36;;;;;;;4.80;2.45;;;27.80;46.30;;;;;;4986250;28;21006;-86
2022/06/21 07:46:05;;;;;;;5.22;2.40;;;29.60;41.80;;;;;;4986093;28;20027;-87
2022/06/21 07:48:50;;;;;;;3.97;2.30;;;31.10;39.80;;;;;;4987439;28;20026;-87
2022/06/21 07:51:24;;;;;;;5.22;2.25;;;32.90;36.20;;;;;;4987934;28;20038;-86
2022/06/21 07:54:07;;;;;;;5.25;2.38;;;34.40;33.20;;;;;;4984195;28;20034;-86
2022/06/21 07:56:39;;;;;;;3.97;2.20;;;35.50;31.30;;;;;;4989431;28;20050;-87
2022/06/21 07:59:20;;;;;;;6.18;2.55;;;36.30;29.30;;;;;;4989340;28;20125;-87
2022/06/21 08:07:51;;;;;;;5.78;2.35;;;37.30;28.10;;;;;;4985262;28;20581;-87
2022/06/21 08:10:24;;;;;;;4.43;2.30;;;38.10;28.00;;;;;;4993176;28;20386;-86
2022/06/21 08:12:50;;;;;;;4.38;2.15;;;38.80;26.70;;;;;;4989432;28;20057;-87
2022/06/21 08:15:17;;;;;;;6.07;2.60;;;39.30;26.30;;;;;;4997105;28;20573;-87
2022/06/21 08:18:03;;;;;;;4.90;2.00;;;39.50;26.10;;;;;;4994219;28;20034;-87
2022/06/21 08:20:51;;;;;;;7.68;2.25;;;39.90;25.70;;;;;;4975712;28;20421;-86
2022/06/21 08:23:26;;;;;;;4.75;2.08;;;40.00;25.20;;;;;;4977104;28;20030;-87
2022/06/21 08:25:55;;;;;;;414.05;42.92;;;40.30;25.60;;;;;;4986112;28;20030;-87
2022/06/21 08:28:28;;;;;;;28.77;3.50;;;40.40;25.50;;;;;;4986249;28;20257;-87
2022/06/21 08:30:57;;;;;;;9.20;2.75;;;40.60;25.10;;;;;;4987116;28;20022;-86
2022/06/21 08:33:35;;;;;;;4.38;2.20;;;40.40;24.60;;;;;;4983659;28;20113;-87
2022/06/21 08:36:16;;;;;;;4.78;2.22;;;40.50;25.20;;;;;;4988064;28;20038;-87
2022/06/21 08:38:52;;;;;;;6.25;2.40;;;40.40;24.90;;;;;;4985034;28;20029;-87
2022/06/21 08:41:52;;;;;;;4.00;2.10;;;40.50;25.00;;;;;;4985068;28;20022;-86
2022/06/21 08:44:47;;;;;;;4.45;1.70;;;40.40;25.50;;;;;;4985314;28;20015;-86
2022/06/21 08:47:40;;;;;;;6.55;1.98;;;40.40;24.80;;;;;;4987768;28;20080;-86
2022/06/21 08:50:43;;;;;;;4.32;2.05;;;40.60;24.70;;;;;;4987718;28;20101;-86
2022/06/21 08:53:24;;;;;;;4.13;1.77;;;40.40;24.70;;;;;;4999868;28;20129;-86
2022/06/21 08:56:05;;;;;;;5.78;1.98;;;40.60;24.80;;;;;;4984220;28;20023;-86
2022/06/21 08:58:44;;;;;;;4.82;2.15;;;40.20;25.20;;;;;;4989844;28;20030;-87
2022/06/21 09:01:38;;;;;;;5.53;2.00;;;40.50;25.40;;;;;;4987667;28;20026;-87
2022/06/21 09:04:26;;;;;;;4.03;2.40;;;40.40;24.30;;;;;;5003078;28;20062;-87
2022/06/21 09:07:16;;;;;;;4.00;1.70;;;40.40;25.40;;;;;;4986094;28;20066;-87
2022/06/21 09:10:00;;;;;;;6.18;2.08;;;40.50;25.10;;;;;;4990291;28;20026;-87
2022/06/21 09:13:02;;;;;;;3.50;1.77;;;40.70;25.40;;;;;;4979685;28;20568;-87
2022/06/21 09:15:53;;;;;;;4.78;2.20;;;40.80;25.10;;;;;;4976989;28;20628;-87
2022/06/21 09:18:48;;;;;;;3.50;1.95;;;40.80;24.60;;;;;;5007362;28;20042;-86
2022/06/21 09:21:25;;;;;;;6.60;2.17;;;41.10;24.30;;;;;;4995148;28;20405;-86
2022/06/21 09:23:57;;;;;;;4.60;2.10;;;41.30;24.70;;;;;;4996407;28;20073;-86
2022/06/21 09:27:05;;;;;;;4.75;2.10;;;41.40;24.80;;;;;;4979328;28;20045;-87
2022/06/21 09:29:35;;;;;;;4.32;2.17;;;41.60;24.30;;;;;;4992078;28;20053;-86
2022/06/21 09:32:17;;;;;;;4.10;1.88;;;41.50;24.40;;;;;;4976787;28;20031;-86
2022/06/21 09:35:24;;;;;;;5.25;2.13;;;41.80;24.10;;;;;;4976861;28;20029;-86
2022/06/21 09:38:07;;;;;;;4.20;2.20;;;41.80;24.20;;;;;;4969401;28;20043;-86
2022/06/21 09:40:40;;;;;;;4.60;2.60;;;41.90;24.10;;;;;;4981355;28;20102;-86
2022/06/21 09:43:09;;;;;;;5.88;2.15;;;42.10;23.90;;;;;;4986964;28;20019;-86
2022/06/21 09:46:09;;;;;;;4.00;2.30;;;42.00;23.90;;;;;;4989263;28;20026;-87
2022/06/21 09:48:57;;;;;;;4.82;2.22;;;41.90;23.80;;;;;;4970404;28;20046;-86
2022/06/21 09:51:51;;;;;;;4.88;2.28;;;40.80;24.00;;;;;;4991128;28;20037;-86
2022/06/21 09:54:25;;;;;;;4.53;2.13;;;41.10;24.70;;;;;;4980336;28;20173;-86
2022/06/21 09:57:02;;;;;;;3.92;2.08;;;41.60;25.00;;;;;;4986944;28;20746;-86
2022/06/21 09:59:32;;;;;;;4.10;2.08;;;42.20;23.60;;;;;;5013957;28;20039;-86
2022/06/21 10:02:29;;;;;;;8.25;2.25;;;42.00;24.50;;;;;;4976551;28;20033;-86
2022/06/21 10:05:16;;;;;;;4.70;2.05;;;41.80;24.70;;;;;;4989590;28;20034;-86
2022/06/21 10:07:53;;;;;;;6.80;2.35;;;40.90;25.30;;;;;;4994346;28;20038;-85
2022/06/21 10:10:47;;;;;;;4.30;1.98;;;41.20;24.80;;;;;;4976431;28;20038;-86
2022/06/21 10:13:32;;;;;;;4.65;2.28;;;40.40;25.90;;;;;;4980544;28;20069;-86
2022/06/21 10:16:13;;;;;;;3.28;2.17;;;39.70;26.50;;;;;;4995478;28;20073;-85
2022/06/21 10:18:51;;;;;;;4.63;1.95;;;40.40;26.20;;;;;;4995654;28;20037;-86
2022/06/21 10:21:56;;;;;;;5.22;2.13;;;39.80;26.50;;;;;;4995569;28;20030;-86
2022/06/21 10:24:24;;;;;;;5.13;2.40;;;40.30;26.20;;;;;;4976232;28;20035;-86
2022/06/21 10:26:53;;;;;;;;;;;38.90;27.90;;;;;;4975951;28;20113;-86
2022/06/21 10:29:47;;;;;;;7.32;2.67;;;39.40;26.20;;;;;;4976268;28;19910;-86
2022/06/21 10:32:51;;;;;;;3.65;2.47;;;39.60;27.00;;;;;;4960158;28;20050;-86
2022/06/21 10:35:24;;;;;;;3.38;1.77;;;38.90;27.90;;;;;;4975057;28;20015;-86
2022/06/21 10:37:59;;;;;;;4.30;2.10;;;37.70;28.60;;;;;;4976148;28;20062;-86
2022/06/21 10:41:00;;;;;;;4.55;2.40;;;37.40;29.60;;;;;;4975173;28;20034;-86
2022/06/21 10:43:31;;;;;;;4.00;2.30;;;37.40;30.10;;;;;;4974240;28;20604;-86
2022/06/21 10:46:11;;;;;;;7.10;3.03;;;37.00;30.70;;;;;;4975917;28;20023;-85
2022/06/21 10:49:10;;;;;;;4.47;2.20;;;36.60;30.20;;;;;;4975113;28;20081;-84
2022/06/21 10:51:38;;;;;;;4.07;2.30;;;36.20;31.50;;;;;;4976037;28;20018;-85
2022/06/21 10:54:38;;;;;;;7.05;3.10;;;35.60;32.00;;;;;;4976015;28;20059;-86
2022/06/21 10:57:21;;;;;;;7.18;3.13;;;35.10;32.40;;;;;;4975670;28;20408;-86
2022/06/21 11:03:00;;;;;;;6.28;3.00;;;34.50;33.10;;;;;;4994664;28;20037;-85
2022/06/21 11:05:50;;;;;;;7.82;2.53;;;34.20;35.60;;;;;;4995310;28;20037;-85
2022/06/21 11:08:20;;;;;;;4.93;2.55;;;34.10;34.70;;;;;;4995093;28;20476;-85
2022/06/21 11:11:02;;;;;;;3.42;2.28;;;34.00;35.00;;;;;;4994039;28;20029;-85
2022/06/21 11:13:38;;;;;;;6.68;2.65;;;34.00;35.30;;;;;;4995197;28;20022;-85
2022/06/21 11:16:43;;;;;;;6.88;3.15;;;33.90;35.30;;;;;;4993883;28;20844;-86
2022/06/21 11:19:25;;;;;;;6.13;2.60;;;33.70;35.60;;;;;;4994479;28;20489;-85
2022/06/21 11:22:20;;;;;;;6.32;2.42;;;33.30;36.40;;;;;;4978719;28;20429;-85
2022/06/21 11:25:34;;;;;;;6.55;2.58;;;33.30;37.10;;;;;;4977980;28;20042;-85
2022/06/21 11:28:25;;;;;;;3.90;2.55;;;33.00;37.60;;;;;;4982059;28;20133;-85
2022/06/21 11:31:06;;;;;;;8.45;3.17;;;32.80;36.60;;;;;;4998353;28;20521;-85
2022/06/21 11:33:56;;;;;;;5.93;2.45;;;32.20;37.80;;;;;;4979215;28;20066;-84
2022/06/21 11:36:51;;;;;;;4.47;2.38;;;32.00;39.50;;;;;;4977852;28;20023;-86
2022/06/21 11:39:47;;;;;;;7.45;2.90;;;32.10;38.00;;;;;;4997920;28;20038;-85
2022/06/21 11:42:29;;;;;;;6.40;2.70;;;31.90;38.30;;;;;;4996770;28;20030;-85
2022/06/21 11:45:14;;;;;;;4.72;2.78;;;31.90;38.60;;;;;;4983870;28;20037;-85
2022/06/21 11:47:58;;;;;;;6.28;3.03;;;32.10;38.60;;;;;;4978875;28;20033;-85
2022/06/21 11:50:55;;;;;;;3.88;2.10;;;32.30;37.70;;;;;;4977977;28;20031;-85
2022/06/21 11:53:46;;;;;;;3.83;2.60;;;32.60;38.30;;;;;;4979103;28;20026;-85
2022/06/21 11:56:27;;;;;;;5.97;2.65;;;32.50;37.40;;;;;;4976985;28;20055;-85
2022/06/21 11:59:02;;;;;;;7.10;2.92;;;32.50;37.40;;;;;;4994606;28;20511;-85
2022/06/21 12:02:00;;;;;;;4.70;2.60;;;32.50;37.80;;;;;;4999937;28;20038;-85
2022/06/21 12:04:54;;;;;;;5.22;2.50;;;32.70;37.70;;;;;;4977541;28;20042;-84
2022/06/21 12:07:26;;;;;;;3.35;2.30;;;32.70;38.90;;;;;;4978459;28;20031;-84
2022/06/21 12:10:00;;;;;;;4.63;2.50;;;32.80;38.20;;;;;;4978363;28;20026;-84
2022/06/21 12:12:41;;;;;;;4.63;2.70;;;32.70;37.50;;;;;;4978044;28;20027;-84
2022/06/21 12:15:26;;;;;;;5.93;3.00;;;32.30;37.60;;;;;;4983511;28;20105;-84
2022/06/21 12:17:54;;;;;;;5.05;2.67;;;31.90;39.10;;;;;;4997517;28;20088;-84
2022/06/21 12:20:42;;;;;;;4.07;2.42;;;32.10;38.60;;;;;;4997552;28;20065;-84
2022/06/21 12:23:25;;;;;;;4.88;2.78;;;32.40;38.70;;;;;;5002087;28;20075;-84
2022/06/21 12:25:51;;;;;;;4.93;2.75;;;32.60;38.20;;;;;;4978149;28;20041;-85
2022/06/21 12:28:24;;;;;;;4.53;1.90;;;32.50;37.60;;;;;;4977318;28;20065;-84
2022/06/21 12:30:51;;;;;;;5.57;2.45;;;32.30;38.30;;;;;;4992774;28;20022;-85
2022/06/21 12:33:22;;;;;;;4.93;2.70;;;32.00;37.90;;;;;;4977496;28;20086;-85
2022/06/21 12:35:56;;;;;;;6.65;2.83;;;31.90;38.80;;;;;;4976685;28;20030;-85
2022/06/21 12:38:40;;;;;;;3.53;2.42;;;31.70;38.90;;;;;;4976718;28;20038;-85
2022/06/21 12:41:34;;;;;;;6.07;2.72;;;31.60;39.00;;;;;;4977838;28;20035;-85
2022/06/21 12:44:03;;;;;;;7.22;2.47;;;31.50;38.70;;;;;;4976313;28;20069;-84
2022/06/21 12:46:41;;;;;;;3.53;2.35;;;31.40;40.80;;;;;;4977769;28;20034;-84
2022/06/21 12:49:40;;;;;;;4.68;2.42;;;31.70;40.60;;;;;;4977249;28;20046;-85
2022/06/21 12:52:12;;;;;;;3.85;2.42;;;31.90;39.50;;;;;;4977299;28;20027;-84
2022/06/21 12:54:53;;;;;;;5.65;3.10;;;32.20;39.70;;;;;;4989659;28;20374;-84
2022/06/21 12:57:46;;;;;;;4.53;2.22;;;32.20;39.40;;;;;;4996554;28;20877;-84
2022/06/21 13:00:38;;;;;;;4.70;2.25;;;31.80;39.90;;;;;;4999965;28;20030;-84
2022/06/21 13:03:20;;;;;;;4.40;2.50;;;31.70;39.60;;;;;;4987402;28;20031;-84
2022/06/21 13:05:57;;;;;;;4.57;2.30;;;31.70;40.70;;;;;;4977291;28;20030;-84
2022/06/21 13:08:45;;;;;;;6.10;2.47;;;31.90;39.10;;;;;;4975317;28;20041;-84
2022/06/21 13:11:30;;;;;;;5.20;2.20;;;32.10;39.20;;;;;;4977861;28;20081;-84
2022/06/21 13:14:34;;;;;;;4.07;2.53;;;32.30;38.70;;;;;;4995454;28;20022;-84
2022/06/21 13:17:24;;;;;;;5.03;2.65;;;32.50;39.00;;;;;;4991461;28;20033;-84
2022/06/21 13:20:23;;;;;;;4.63;2.40;;;32.50;38.20;;;;;;4992562;28;20030;-84
2022/06/21 13:22:55;;;;;;;6.28;2.60;;;32.50;38.70;;;;;;4975410;28;20050;-84
2022/06/21 13:25:37;;;;;;;3.45;2.30;;;32.40;38.20;;;;;;4976254;28;20030;-84
2022/06/21 13:28:17;;;;;;;6.32;2.35;;;32.30;38.00;;;;;;4976693;28;20035;-84
2022/06/21 13:31:03;;;;;;;3.55;2.50;;;32.10;37.90;;;;;;4976864;28;20029;-84
2022/06/21 13:33:56;;;;;;;3.35;2.10;;;31.90;38.40;;;;;;4976562;28;20026;-84
2022/06/21 13:36:45;;;;;;;5.90;2.53;;;31.60;39.40;;;;;;4976901;28;20030;-84
2022/06/21 13:39:41;;;;;;;6.00;2.58;;;31.70;39.40;;;;;;4976381;28;20034;-84
2022/06/21 13:42:38;;;;;;;4.93;2.15;;;31.80;39.20;;;;;;4976157;28;20033;-84
2022/06/21 13:45:32;;;;;;;3.60;2.30;;;31.70;40.00;;;;;;4975279;28;20066;-85
2022/06/21 13:48:25;;;;;;;7.63;2.45;;;31.70;39.80;;;;;;4975296;28;20471;-84
2022/06/21 13:51:14;;;;;;;3.78;2.15;;;31.60;40.30;;;;;;4975786;28;20035;-85
2022/06/21 13:53:51;;;;;;;6.47;3.10;;;31.70;40.20;;;;;;4976024;28;20069;-84
2022/06/21 13:56:39;;;;;;;6.18;2.42;;;31.80;39.10;;;;;;4976331;28;20110;-85
2022/06/21 13:59:28;;;;;;;11.63;3.10;;;31.80;39.40;;;;;;4996882;28;20033;-85